createdAt,value
2023-05-14T00:01:18.143Z,99274.72
2023-05-14T00:03:44.973Z,99275.53
2023-05-14T00:06:11.789Z,99278.31
2023-05-14T00:08:38.526Z,99270.31
2023-05-14T00:11:05.635Z,99265.06
2023-05-14T00:13:32.632Z,99266.44
2023-05-14T00:15:59.351Z,99264.63
2023-05-14T00:18:26.224Z,99257.84
2023-05-14T00:20:55.073Z,99259.88
2023-05-14T00:23:24.916Z,99258.47
2023-05-14T00:25:51.669Z,99261.81
2023-05-14T00:28:18.417Z,99267.66
2023-05-14T00:30:45.514Z,99266.88
2023-05-14T00:33:12.329Z,99267.44
2023-05-14T00:35:39.254Z,99268.28
2023-05-14T00:38:06.157Z,99267.88
2023-05-14T00:40:32.982Z,99262.47
2023-05-14T00:42:59.697Z,99265.13
2023-05-14T00:45:26.435Z,99266.91
2023-05-14T00:47:54.224Z,99256.28
2023-05-14T00:50:21.499Z,99250.31
2023-05-14T00:52:48.452Z,99259.72
2023-05-14T00:55:16.897Z,99255.88
2023-05-14T00:57:43.804Z,99259.44
2023-05-14T01:02:52.328Z,99222.22
2023-05-14T01:05:19.490Z,99256.91
2023-05-14T01:08:05.618Z,99259.81
2023-05-14T01:10:42.878Z,99262.31
2023-05-14T01:13:14.329Z,99260.53
2023-05-14T01:15:42.198Z,99253.03
2023-05-14T01:18:11.664Z,99245.69
2023-05-14T01:20:38.471Z,99259.00
2023-05-14T01:23:05.274Z,99249.84
2023-05-14T01:25:32.484Z,99254.44
2023-05-14T01:28:24.793Z,99240.31
2023-05-14T01:30:58.365Z,99235.72
2023-05-14T01:33:26.654Z,99242.66
2023-05-14T01:35:54.504Z,99234.75
2023-05-14T01:38:22.073Z,99235.91
2023-05-14T01:40:49.399Z,99239.78
2023-05-14T01:43:16.551Z,99242.25
2023-05-14T01:45:43.938Z,99237.25
2023-05-14T01:48:11.083Z,99240.03
2023-05-14T01:50:38.102Z,99241.44
2023-05-14T01:53:04.877Z,99228.41
2023-05-14T01:55:31.603Z,99224.31
2023-05-14T01:57:58.318Z,99227.75
2023-05-14T02:00:26.338Z,99232.56
2023-05-14T02:02:53.385Z,99229.84
2023-05-14T02:05:20.394Z,99226.50
2023-05-14T02:07:47.210Z,99221.81
2023-05-14T02:10:13.906Z,99225.53
2023-05-14T02:12:40.743Z,99229.84
2023-05-14T02:15:09.283Z,99223.63
2023-05-14T02:17:36.056Z,99230.56
2023-05-14T02:20:02.990Z,99223.94
2023-05-14T02:22:29.691Z,99229.31
2023-05-14T02:24:56.409Z,99221.28
2023-05-14T02:27:23.140Z,99226.22
2023-05-14T02:29:50.224Z,99214.50
2023-05-14T02:32:16.991Z,99213.41
2023-05-14T02:34:43.835Z,99211.03
2023-05-14T02:37:10.541Z,99209.09
2023-05-14T02:39:37.301Z,99201.75
2023-05-14T02:42:04.151Z,99207.00
2023-05-14T02:44:32.041Z,99208.41
2023-05-14T02:46:58.925Z,99208.28
2023-05-14T02:49:25.743Z,99200.81
2023-05-14T02:51:54.570Z,99201.38
2023-05-14T02:54:21.278Z,99201.38
2023-05-14T02:56:48.154Z,99204.69
2023-05-14T02:59:14.897Z,99205.94
2023-05-14T03:01:42.333Z,99199.44
2023-05-14T03:04:09.482Z,99202.75
2023-05-14T03:06:36.227Z,99196.09
2023-05-14T03:09:03.063Z,99210.09
2023-05-14T03:11:29.882Z,99209.41
2023-05-14T03:13:56.677Z,99200.28
2023-05-14T03:16:23.434Z,99206.34
2023-05-14T03:18:50.660Z,99202.47
2023-05-14T03:21:17.534Z,99200.78
2023-05-14T03:23:44.584Z,99199.72
2023-05-14T03:26:11.415Z,99200.25
2023-05-14T03:28:38.139Z,99198.16
2023-05-14T03:31:05.180Z,99201.88
2023-05-14T03:33:32.171Z,99204.38
2023-05-14T03:35:58.853Z,99198.00
2023-05-14T03:38:25.685Z,99202.16
2023-05-14T03:40:52.561Z,99203.41
2023-05-14T03:43:19.351Z,99198.81
2023-05-14T03:45:46.113Z,99200.00
2023-05-14T03:48:13.302Z,99201.88
2023-05-14T03:50:40.662Z,99196.91
2023-05-14T03:53:07.589Z,99204.66
2023-05-14T03:55:34.374Z,99211.84
2023-05-14T03:58:02.344Z,99202.88
2023-05-14T04:00:29.757Z,99200.22
2023-05-14T04:02:56.620Z,99202.03
2023-05-14T04:05:24.051Z,99200.91
2023-05-14T04:07:52.933Z,99207.41
2023-05-14T04:10:19.851Z,99202.16
2023-05-14T04:12:46.584Z,99206.16
2023-05-14T04:15:13.457Z,99207.56
2023-05-14T04:17:40.507Z,99198.16
2023-05-14T04:20:08.347Z,99203.28
2023-05-14T04:22:35.308Z,99206.00
2023-05-14T04:25:02.319Z,99198.78
2023-05-14T04:27:29.101Z,99203.44
2023-05-14T04:29:56.130Z,99201.09
2023-05-14T04:32:23.587Z,99199.13
2023-05-14T04:34:51.447Z,99200.91
2023-05-14T04:37:18.359Z,99198.25
2023-05-14T04:39:45.930Z,99199.03
2023-05-14T04:42:12.872Z,99201.09
2023-05-14T04:44:39.705Z,99199.72
2023-05-14T04:47:07.349Z,99199.13
2023-05-14T04:49:34.208Z,99199.31
2023-05-14T04:52:01.953Z,99195.13
2023-05-14T04:54:28.803Z,99194.31
2023-05-14T04:56:56.275Z,99199.81
2023-05-14T04:59:23.136Z,99195.81
2023-05-14T05:01:51.954Z,99199.22
2023-05-14T05:04:19.431Z,99184.25
2023-05-14T05:06:49.434Z,99197.09
2023-05-14T05:09:18.547Z,99198.47
2023-05-14T05:11:45.444Z,99206.31
2023-05-14T05:14:12.169Z,99205.41
2023-05-14T05:16:39.005Z,99203.97
2023-05-14T05:19:06.101Z,99207.56
2023-05-14T05:21:33.723Z,99199.53
2023-05-14T05:24:00.638Z,99199.69
2023-05-14T05:26:27.726Z,99204.31
2023-05-14T05:28:54.601Z,99208.09
2023-05-14T05:31:21.602Z,99198.41
2023-05-14T05:33:48.564Z,99199.84
2023-05-14T05:36:15.318Z,99192.38
2023-05-14T05:38:42.885Z,99196.84
2023-05-14T05:41:09.625Z,99190.97
2023-05-14T05:43:36.947Z,99191.44
2023-05-14T05:46:03.774Z,99191.81
2023-05-14T05:48:30.864Z,99182.16
2023-05-14T05:50:58.167Z,99189.16
2023-05-14T05:53:25.230Z,99185.31
2023-05-14T05:55:52.169Z,99184.25
2023-05-14T05:58:19.557Z,99176.25
2023-05-14T06:00:47.701Z,99177.09
2023-05-14T06:03:14.571Z,99165.41
2023-05-14T06:05:41.932Z,99171.44
2023-05-14T06:08:09.320Z,99171.88
2023-05-14T06:10:36.680Z,99169.69
2023-05-14T06:13:04.288Z,99172.50
2023-05-14T06:15:31.007Z,99176.56
2023-05-14T06:17:57.992Z,99175.06
2023-05-14T06:20:25.072Z,99181.47
2023-05-14T06:22:52.519Z,99190.56
2023-05-14T06:25:19.513Z,99186.63
2023-05-14T06:27:46.834Z,99187.25
2023-05-14T06:30:14.295Z,99182.34
2023-05-14T06:32:41.147Z,99181.75
2023-05-14T06:35:09.189Z,99188.50
2023-05-14T06:37:36.093Z,99175.59
2023-05-14T06:40:04.223Z,99182.59
2023-05-14T06:42:31.052Z,99174.31
2023-05-14T06:44:57.888Z,99187.78
2023-05-14T06:47:25.206Z,99179.44
2023-05-14T06:49:52.521Z,99171.09
2023-05-14T06:52:19.305Z,99181.28
2023-05-14T06:54:46.310Z,99178.09
2023-05-14T06:57:13.816Z,99178.50
2023-05-14T06:59:40.529Z,99170.75
2023-05-14T07:02:07.530Z,99173.44
2023-05-14T07:04:34.674Z,99166.81
2023-05-14T07:07:01.863Z,99168.63
2023-05-14T07:09:29.221Z,99158.91
2023-05-14T07:11:56.090Z,99168.63
2023-05-14T07:14:22.874Z,99162.00
2023-05-14T07:16:49.670Z,99160.34
2023-05-14T07:19:16.613Z,99147.78
2023-05-14T07:21:43.931Z,99157.13
2023-05-14T07:24:10.769Z,99150.97
2023-05-14T07:26:37.856Z,99144.25
2023-05-14T07:29:04.628Z,99144.97
2023-05-14T07:31:32.260Z,99147.19
2023-05-14T07:33:59.715Z,99147.56
2023-05-14T07:36:26.536Z,99139.38
2023-05-14T07:38:53.259Z,99138.16
2023-05-14T07:41:20.137Z,99142.16
2023-05-14T07:43:46.890Z,99130.44
2023-05-14T07:46:14.290Z,99129.25
2023-05-14T07:48:41.336Z,99130.41
2023-05-14T07:51:08.117Z,99135.81
2023-05-14T07:53:34.946Z,99134.53
2023-05-14T07:56:01.794Z,99133.00
2023-05-14T07:58:29.208Z,99130.03
2023-05-14T08:00:56.874Z,99121.09
2023-05-14T08:03:23.872Z,99121.75
2023-05-14T08:05:52.456Z,99124.53
2023-05-14T08:08:19.328Z,99113.47
2023-05-14T08:10:46.073Z,99116.94
2023-05-14T08:13:12.767Z,99112.47
2023-05-14T08:15:39.621Z,99115.91
2023-05-14T08:18:06.619Z,99111.19
2023-05-14T08:20:33.592Z,99108.16
2023-05-14T08:23:00.377Z,99116.31
2023-05-14T08:25:27.226Z,99101.31
2023-05-14T08:27:54.541Z,99107.88
2023-05-14T08:30:22.373Z,99106.16
2023-05-14T08:32:49.830Z,99101.09
2023-05-14T08:35:17.701Z,99097.44
2023-05-14T08:37:46.521Z,99098.81
2023-05-14T08:40:13.983Z,99101.81
2023-05-14T08:42:45.263Z,99104.72
2023-05-14T08:45:22.298Z,99093.31
2023-05-14T08:47:50.976Z,99087.31
2023-05-14T08:50:19.906Z,99086.53
2023-05-14T08:52:49.334Z,99087.88
2023-05-14T08:55:16.693Z,99086.84
2023-05-14T08:57:46.925Z,99086.22
2023-05-14T09:00:15.894Z,99080.59
2023-05-14T09:02:44.958Z,99084.38
2023-05-14T09:05:12.756Z,99082.94
2023-05-14T09:07:39.903Z,99090.06
2023-05-14T09:10:09.390Z,99085.38
2023-05-14T09:12:36.674Z,99068.00
2023-05-14T09:15:05.167Z,99079.09
2023-05-14T09:17:32.378Z,99076.34
2023-05-14T09:19:59.815Z,99082.84
2023-05-14T09:22:32.927Z,99069.75
2023-05-14T09:25:07.330Z,99079.06
2023-05-14T09:27:34.503Z,99076.59
2023-05-14T09:30:14.400Z,99063.81
2023-05-14T09:32:50.636Z,99073.75
2023-05-14T09:35:18.922Z,99066.91
2023-05-14T09:37:49.545Z,99065.25
2023-05-14T09:40:17.555Z,99062.91
2023-05-14T09:42:44.495Z,99064.63
2023-05-14T09:45:11.864Z,99052.59
2023-05-14T09:47:39.543Z,99052.81
2023-05-14T09:50:08.347Z,99049.84
2023-05-14T09:52:35.948Z,99049.59
2023-05-14T09:55:03.041Z,99043.59
2023-05-14T09:57:29.988Z,99044.72
2023-05-14T09:59:56.864Z,99033.13
2023-05-14T10:02:34.203Z,99034.75
2023-05-14T10:05:02.977Z,99033.47
2023-05-14T10:07:34.130Z,99033.47
2023-05-14T10:10:03.821Z,99040.78
2023-05-14T10:12:34.907Z,99032.63
2023-05-14T10:15:13.964Z,99029.00
2023-05-14T10:17:41.839Z,99034.41
2023-05-14T10:20:10.407Z,99031.25
2023-05-14T10:22:37.410Z,99028.84
2023-05-14T10:25:04.955Z,99023.66
2023-05-14T10:27:32.022Z,99024.09
2023-05-14T10:29:58.838Z,99015.31
2023-05-14T10:32:26.723Z,99019.38
2023-05-14T10:34:54.008Z,99012.63
2023-05-14T10:37:25.770Z,99014.88
2023-05-14T10:40:13.370Z,99016.44
2023-05-14T10:42:41.215Z,99013.00
2023-05-14T10:45:09.300Z,99005.81
2023-05-14T10:47:37.586Z,99009.97
2023-05-14T10:50:06.900Z,99009.56
2023-05-14T10:52:35.639Z,98997.59
2023-05-14T10:55:10.583Z,99006.47
2023-05-14T10:57:39.259Z,98996.41
2023-05-14T11:00:09.962Z,98999.94
2023-05-14T11:02:38.442Z,99000.94
2023-05-14T11:05:14.453Z,99003.16
2023-05-14T11:07:46.209Z,98993.88
2023-05-14T11:10:14.853Z,98989.41
2023-05-14T11:12:47.464Z,98995.00
2023-05-14T11:15:22.014Z,98982.47
2023-05-14T11:17:50.644Z,98986.16
2023-05-14T11:20:18.460Z,98977.09
2023-05-14T11:22:46.332Z,98976.06
2023-05-14T11:25:16.494Z,98971.38
2023-05-14T11:27:44.696Z,98973.41
2023-05-14T11:30:21.099Z,98969.31
2023-05-14T11:32:49.765Z,98975.88
2023-05-14T11:35:17.565Z,98964.81
2023-05-14T11:37:50.983Z,98967.72
2023-05-14T11:40:18.203Z,98951.25
2023-05-14T11:42:45.632Z,98953.66
2023-05-14T11:45:13.407Z,98952.63
2023-05-14T11:47:41.644Z,98942.00
2023-05-14T11:50:21.237Z,98945.50
2023-05-14T11:52:50.910Z,98944.84
2023-05-14T11:55:18.141Z,98940.88
2023-05-14T11:57:45.348Z,98933.94
2023-05-14T12:00:22.039Z,98932.50
2023-05-14T12:02:51.017Z,98924.94
2023-05-14T12:05:24.430Z,98924.75
2023-05-14T12:07:59.758Z,98926.63
2023-05-14T12:10:26.639Z,98927.66
2023-05-14T12:12:53.783Z,98924.75
2023-05-14T12:15:22.122Z,98922.84
2023-05-14T12:17:52.553Z,98923.31
2023-05-14T12:20:19.415Z,98923.56
2023-05-14T12:22:46.304Z,98916.28
2023-05-14T12:25:14.296Z,98912.19
2023-05-14T12:27:41.727Z,98915.69
2023-05-14T12:32:42.191Z,98905.75
2023-05-14T12:35:09.741Z,98899.50
2023-05-14T12:37:37.768Z,98911.59
2023-05-14T12:40:09.655Z,98901.91
2023-05-14T12:42:37.230Z,98895.00
2023-05-14T12:45:07.593Z,98891.94
2023-05-14T12:47:34.821Z,98894.81
2023-05-14T12:50:01.882Z,98891.84
2023-05-14T12:52:37.625Z,98876.53
2023-05-14T12:55:06.827Z,98893.91
2023-05-14T12:57:35.909Z,98891.50
2023-05-14T13:00:07.121Z,98889.97
2023-05-14T13:02:41.992Z,98877.13
2023-05-14T13:05:10.400Z,98883.50
2023-05-14T13:07:37.366Z,98886.81
2023-05-14T13:10:06.093Z,98885.81
2023-05-14T13:12:33.200Z,98883.72
2023-05-14T13:15:00.078Z,98880.69
2023-05-14T13:17:27.026Z,98883.13
2023-05-14T13:19:53.865Z,98869.19
2023-05-14T13:22:24.066Z,98882.66
2023-05-14T13:24:50.997Z,98876.34
2023-05-14T13:27:17.845Z,98869.38
2023-05-14T13:29:44.593Z,98866.13
2023-05-14T13:32:11.452Z,98867.34
2023-05-14T13:34:38.244Z,98873.66
2023-05-14T13:37:05.062Z,98869.56
2023-05-14T13:39:31.795Z,98865.47
2023-05-14T13:41:58.740Z,98872.41
2023-05-14T13:44:25.588Z,98864.59
2023-05-14T13:46:52.738Z,98863.78
2023-05-14T13:49:19.825Z,98859.41
2023-05-14T13:51:46.524Z,98857.91
2023-05-14T13:54:13.553Z,98853.69
2023-05-14T13:56:40.531Z,98855.72
2023-05-14T13:59:07.408Z,98842.47
2023-05-14T14:01:34.139Z,98844.81
2023-05-14T14:04:01.143Z,98849.53
2023-05-14T14:06:27.879Z,98843.81
2023-05-14T14:08:54.966Z,98839.13
2023-05-14T14:11:22.499Z,98827.78
2023-05-14T14:13:49.345Z,98833.84
2023-05-14T14:16:16.517Z,98827.59
2023-05-14T14:18:43.602Z,98823.75
2023-05-14T14:21:10.760Z,98822.13
2023-05-14T14:23:37.656Z,98828.47
2023-05-14T14:26:04.648Z,98818.38
2023-05-14T14:28:31.663Z,98820.13
2023-05-14T14:31:00.842Z,98810.09
2023-05-14T14:33:28.017Z,98817.25
2023-05-14T14:35:54.952Z,98819.13
2023-05-14T14:38:21.888Z,98810.84
2023-05-14T14:40:49.276Z,98815.38
2023-05-14T14:43:16.785Z,98812.28
2023-05-14T14:45:48.232Z,98812.59
2023-05-14T14:48:34.736Z,98810.44
2023-05-14T14:51:01.815Z,98808.75
2023-05-14T14:53:28.957Z,98805.06
2023-05-14T14:55:56.073Z,98801.75
2023-05-14T14:58:23.302Z,98804.66
2023-05-14T15:00:55.356Z,98799.72
2023-05-14T15:03:23.123Z,98803.38
2023-05-14T15:05:50.188Z,98804.59
2023-05-14T15:08:17.196Z,98805.84
2023-05-14T15:10:45.268Z,98806.41
2023-05-14T15:13:15.858Z,98800.94
2023-05-14T15:15:42.603Z,98807.91
2023-05-14T15:18:09.831Z,98800.16
2023-05-14T15:20:36.560Z,98801.84
2023-05-14T15:23:03.547Z,98796.53
2023-05-14T15:25:30.375Z,98796.66
2023-05-14T15:27:57.943Z,98795.88
2023-05-14T15:30:24.722Z,98803.69
2023-05-14T15:32:51.933Z,98808.88
2023-05-14T15:35:19.009Z,98796.94
2023-05-14T15:37:45.918Z,98792.81
2023-05-14T15:40:13.406Z,98801.03
2023-05-14T15:42:44.527Z,98795.38
2023-05-14T15:45:12.977Z,98795.78
2023-05-14T15:47:40.957Z,98804.16
2023-05-14T15:50:08.954Z,98793.91
2023-05-14T15:52:40.463Z,98798.59
2023-05-14T15:55:11.813Z,98796.34
2023-05-14T15:57:38.812Z,98791.00
2023-05-14T16:00:10.712Z,98796.56
2023-05-14T16:02:40.537Z,98801.91
2023-05-14T16:05:08.760Z,98789.41
2023-05-14T16:07:36.638Z,98783.63
2023-05-14T16:10:07.023Z,98794.09
2023-05-14T16:12:34.327Z,98794.94
2023-05-14T16:15:01.562Z,98792.66
2023-05-14T16:17:28.965Z,98790.22
2023-05-14T16:19:56.615Z,98785.50
2023-05-14T16:22:23.722Z,98787.13
2023-05-14T16:24:50.582Z,98788.38
2023-05-14T16:27:19.319Z,98792.03
2023-05-14T16:29:46.260Z,98779.78
2023-05-14T16:32:13.235Z,98781.00
2023-05-14T16:34:40.332Z,98782.63
2023-05-14T16:37:07.394Z,98777.50
2023-05-14T16:39:34.630Z,98780.16
2023-05-14T16:42:01.389Z,98777.06
2023-05-14T16:44:28.197Z,98780.97
2023-05-14T16:46:55.072Z,98781.16
2023-05-14T16:49:23.284Z,98774.75
2023-05-14T16:51:50.505Z,98775.59
2023-05-14T16:54:17.361Z,98771.25
2023-05-14T16:56:48.808Z,98782.59
2023-05-14T16:59:16.658Z,98772.28
2023-05-14T17:01:45.244Z,98771.25
2023-05-14T17:04:12.182Z,98765.47
2023-05-14T17:06:38.919Z,98759.31
2023-05-14T17:09:05.918Z,98762.34
2023-05-14T17:11:32.731Z,98765.66
2023-05-14T17:13:59.379Z,98763.63
2023-05-14T17:16:27.329Z,98761.56
2023-05-14T17:18:54.355Z,98764.22
2023-05-14T17:21:21.089Z,98766.03
2023-05-14T17:23:47.896Z,98769.50
2023-05-14T17:26:14.658Z,98769.69
2023-05-14T17:28:41.367Z,98762.63
2023-05-14T17:31:08.186Z,98765.47
2023-05-14T17:33:34.899Z,98767.63
2023-05-14T17:36:01.762Z,98774.16
2023-05-14T17:38:28.520Z,98760.31
2023-05-14T17:40:55.608Z,98768.56
2023-05-14T17:43:22.324Z,98759.06
2023-05-14T17:48:19.712Z,98767.38
2023-05-14T17:50:46.415Z,98771.09
2023-05-14T17:53:13.218Z,98769.75
2023-05-14T17:55:43.891Z,98772.81
2023-05-14T17:58:15.661Z,98774.09
2023-05-14T18:00:43.912Z,98762.84
2023-05-14T18:03:10.945Z,98775.09
2023-05-14T18:05:37.713Z,98781.25
2023-05-14T18:08:04.614Z,98780.06
2023-05-14T18:10:31.411Z,98790.59
2023-05-14T18:12:58.478Z,98782.84
2023-05-14T18:15:26.094Z,98790.13
2023-05-14T18:17:53.194Z,98799.41
2023-05-14T18:20:20.740Z,98805.09
2023-05-14T18:22:47.467Z,98800.59
2023-05-14T18:25:14.375Z,98801.81
2023-05-14T18:27:44.950Z,98800.59
2023-05-14T18:30:13.589Z,98809.22
2023-05-14T18:32:41.700Z,98816.50
2023-05-14T18:35:08.942Z,98814.31
2023-05-14T18:37:35.802Z,98818.22
2023-05-14T18:40:04.502Z,98815.31
2023-05-14T18:42:31.314Z,98810.78
2023-05-14T18:44:58.088Z,98808.66
2023-05-14T18:47:24.994Z,98824.69
2023-05-14T18:49:55.469Z,98829.91
2023-05-14T18:52:23.138Z,98827.25
2023-05-14T18:54:51.381Z,98817.91
2023-05-14T18:57:18.214Z,98822.03
2023-05-14T18:59:44.943Z,98826.88
2023-05-14T19:02:11.655Z,98824.69
2023-05-14T19:04:50.632Z,98818.16
2023-05-14T19:07:19.057Z,98825.94
2023-05-14T19:09:46.094Z,98834.19
2023-05-14T19:12:13.277Z,98825.84
2023-05-14T19:14:40.308Z,98823.38
2023-05-14T19:17:07.049Z,98817.41
2023-05-14T19:19:33.999Z,98822.75
2023-05-14T19:22:00.752Z,98818.84
2023-05-14T19:24:27.530Z,98822.31
2023-05-14T19:26:54.345Z,98827.63
2023-05-14T19:29:21.060Z,98827.56
2023-05-14T19:31:47.846Z,98825.34
2023-05-14T19:34:14.673Z,98828.88
2023-05-14T19:36:41.995Z,98838.22
2023-05-14T19:39:08.740Z,98838.69
2023-05-14T19:41:35.535Z,98840.50
2023-05-14T19:44:02.278Z,98833.00
2023-05-14T19:46:29.188Z,98834.03
2023-05-14T19:48:55.871Z,98829.47
2023-05-14T19:51:22.647Z,98825.84
2023-05-14T19:53:49.385Z,98821.72
2023-05-14T19:56:16.326Z,98816.59
2023-05-14T19:58:43.912Z,98814.94
2023-05-14T20:01:12.283Z,98818.34
2023-05-14T20:03:39.290Z,98816.25
2023-05-14T20:06:07.438Z,98816.84
2023-05-14T20:08:34.180Z,98812.59
2023-05-14T20:11:01.121Z,98808.78
2023-05-14T20:13:27.926Z,98816.78
2023-05-14T20:15:55.371Z,98812.78
2023-05-14T20:18:22.224Z,98812.75
2023-05-14T20:20:49.406Z,98810.03
2023-05-14T20:23:16.188Z,98804.41
2023-05-14T20:25:43.335Z,98807.41
2023-05-14T20:28:10.736Z,98808.25
2023-05-14T20:30:37.681Z,98807.94
2023-05-14T20:33:04.614Z,98812.25
2023-05-14T20:35:31.452Z,98818.41
2023-05-14T20:37:58.861Z,98809.06
2023-05-14T20:40:25.715Z,98805.53
2023-05-14T20:42:52.495Z,98809.34
2023-05-14T20:45:19.306Z,98812.31
2023-05-14T20:47:46.421Z,98807.84
2023-05-14T20:50:13.978Z,98805.38
2023-05-14T20:52:41.057Z,98811.63
2023-05-14T20:55:08.818Z,98809.34
2023-05-14T20:57:35.807Z,98810.28
2023-05-14T21:00:07.265Z,98802.69
2023-05-14T21:02:34.856Z,98804.19
2023-05-14T21:05:01.856Z,98799.56
2023-05-14T21:07:29.039Z,98797.75
2023-05-14T21:09:55.915Z,98805.69
2023-05-14T21:12:22.880Z,98792.53
2023-05-14T21:14:49.572Z,98793.16
2023-05-14T21:17:16.265Z,98791.16
2023-05-14T21:19:43.014Z,98783.09
2023-05-14T21:22:09.696Z,98791.00
2023-05-14T21:24:36.432Z,98783.56
2023-05-14T21:27:03.158Z,98779.28
2023-05-14T21:29:29.950Z,98779.28
2023-05-14T21:31:56.687Z,98779.28
2023-05-14T21:34:23.401Z,98780.38
2023-05-14T21:36:50.362Z,98782.56
2023-05-14T21:39:17.067Z,98778.22
2023-05-14T21:41:43.845Z,98783.19
2023-05-14T21:44:10.591Z,98779.03
2023-05-14T21:46:37.272Z,98767.06
2023-05-14T21:49:04.032Z,98756.47
2023-05-14T21:51:32.400Z,98756.16
2023-05-14T21:53:59.195Z,98759.63
2023-05-14T21:56:26.593Z,98750.72
2023-05-14T21:58:55.755Z,98752.25
2023-05-14T22:01:22.534Z,98754.69
2023-05-14T22:03:49.420Z,98745.00
2023-05-14T22:06:16.141Z,98749.25
2023-05-14T22:08:42.922Z,98748.28
2023-05-14T22:11:09.635Z,98742.16
2023-05-14T22:13:41.108Z,98748.28
2023-05-14T22:16:13.307Z,98728.31
2023-05-14T22:18:40.904Z,98738.41
2023-05-14T22:21:07.717Z,98731.63
2023-05-14T22:23:34.600Z,98732.47
2023-05-14T22:26:01.570Z,98739.91
2023-05-14T22:28:28.317Z,98733.50
2023-05-14T22:30:56.783Z,98737.63
2023-05-14T22:33:23.551Z,98729.38
2023-05-14T22:35:50.293Z,98733.50
2023-05-14T22:38:17.017Z,98721.13
2023-05-14T22:40:43.752Z,98723.28
2023-05-14T22:43:10.937Z,98707.13
2023-05-14T22:45:37.670Z,98710.75
2023-05-14T22:48:04.629Z,98711.75
2023-05-14T22:50:31.423Z,98719.69
2023-05-14T22:52:58.369Z,98715.88
2023-05-14T22:55:25.193Z,98711.91
2023-05-14T22:57:52.104Z,98710.63
2023-05-14T23:00:19.054Z,98718.53
2023-05-14T23:02:45.962Z,98713.75
2023-05-14T23:05:12.741Z,98718.66
2023-05-14T23:07:39.557Z,98716.69
2023-05-14T23:10:06.943Z,98723.91
2023-05-14T23:12:33.794Z,98711.16
2023-05-14T23:15:00.570Z,98708.03
2023-05-14T23:17:27.392Z,98707.13
2023-05-14T23:19:54.335Z,98706.34
2023-05-14T23:22:21.169Z,98704.16
2023-05-14T23:24:47.864Z,98698.91
2023-05-14T23:27:14.580Z,98695.97
2023-05-14T23:29:41.317Z,98696.13
2023-05-14T23:32:08.659Z,98701.09
2023-05-14T23:34:35.743Z,98705.34
2023-05-14T23:37:02.614Z,98696.63
2023-05-14T23:39:29.387Z,98701.06
2023-05-14T23:41:56.104Z,98698.69
2023-05-14T23:44:22.900Z,98689.81
2023-05-14T23:46:49.742Z,98692.09
2023-05-14T23:49:16.556Z,98687.66
2023-05-14T23:51:43.370Z,98688.66
2023-05-14T23:54:10.086Z,98691.53
2023-05-14T23:56:36.858Z,98674.91
2023-05-14T23:59:03.921Z,98679.19
